createdAt,value
2022-12-15T00:03:08.051Z,-8.55
2022-12-15T00:08:29.327Z,-8.57
2022-12-15T00:13:50.810Z,-9.04
2022-12-15T00:19:11.263Z,-9.57
2022-12-15T00:24:31.908Z,-9.10
2022-12-15T00:29:53.792Z,-9.07
2022-12-15T00:35:13.982Z,-9.09
2022-12-15T00:40:16.969Z,-9.09
2022-12-15T00:45:21.232Z,-9.17
2022-12-15T00:50:41.583Z,-9.16
2022-12-15T00:56:01.921Z,-9.47
2022-12-15T01:01:26.721Z,-9.34
2022-12-15T01:06:47.281Z,-9.45
2022-12-15T01:12:07.752Z,-9.89
2022-12-15T01:17:29.900Z,-9.81
2022-12-15T01:22:32.864Z,-9.68
2022-12-15T01:27:36.087Z,-9.85
2022-12-15T01:32:45.846Z,-9.68
2022-12-15T01:37:50.277Z,-9.96
2022-12-15T01:42:53.846Z,-10.17
2022-12-15T01:48:01.760Z,-9.98
2022-12-15T01:53:04.843Z,-9.97
2022-12-15T01:58:10.307Z,-10.45
2022-12-15T02:03:15.173Z,-10.17
2022-12-15T02:08:18.277Z,-10.07
2022-12-15T02:13:29.416Z,-9.95
2022-12-15T02:18:42.553Z,-9.94
2022-12-15T02:24:19.859Z,-9.97
2022-12-15T02:29:54.602Z,-9.84
2022-12-15T02:35:03.868Z,-9.97
2022-12-15T02:40:11.863Z,-10.00
2022-12-15T02:45:20.667Z,-10.10
2022-12-15T02:50:43.287Z,-10.28
2022-12-15T02:55:54.032Z,-10.01
2022-12-15T03:01:02.461Z,-9.98
2022-12-15T03:06:07.254Z,-10.04
2022-12-15T03:11:10.242Z,-10.10
2022-12-15T03:16:13.536Z,-9.84
2022-12-15T03:21:17.848Z,-9.95
2022-12-15T03:26:20.818Z,-10.03
2022-12-15T03:31:23.828Z,-9.87
2022-12-15T03:36:28.153Z,-9.92
2022-12-15T03:41:31.055Z,-9.46
2022-12-15T03:46:34.016Z,-9.43
2022-12-15T03:51:38.324Z,-9.36
2022-12-15T03:56:41.331Z,-9.45
2022-12-15T04:01:48.349Z,-9.69
2022-12-15T04:06:52.726Z,-9.64
2022-12-15T04:11:55.644Z,-9.51
2022-12-15T04:16:58.846Z,-9.20
2022-12-15T04:22:04.652Z,-8.79
2022-12-15T04:27:25.109Z,-8.64
2022-12-15T04:32:45.619Z,-8.46
2022-12-15T04:38:11.983Z,-8.49
2022-12-15T04:43:32.564Z,-8.55
2022-12-15T04:48:52.991Z,-8.39
2022-12-15T04:54:14.622Z,-8.36
2022-12-15T04:59:35.108Z,-8.41
2022-12-15T05:04:55.322Z,-8.58
2022-12-15T05:10:16.996Z,-8.54
2022-12-15T05:15:37.524Z,-8.61
2022-12-15T05:20:58.136Z,-8.83
2022-12-15T05:26:19.871Z,-8.80
2022-12-15T05:31:40.063Z,-8.60
2022-12-15T05:36:43.018Z,-8.82
2022-12-15T05:41:47.390Z,-8.79
2022-12-15T05:46:50.419Z,-8.83
2022-12-15T05:51:53.406Z,-8.96
2022-12-15T05:56:57.642Z,-9.26
2022-12-15T06:02:00.620Z,-9.18
2022-12-15T06:07:03.599Z,-9.30
2022-12-15T06:12:08.128Z,-9.35
2022-12-15T06:17:11.064Z,-9.55
2022-12-15T06:22:13.985Z,-9.51
2022-12-15T06:27:18.250Z,-9.51
2022-12-15T06:32:21.987Z,-9.47
2022-12-15T06:37:24.903Z,-9.47
2022-12-15T06:42:29.147Z,-9.27
2022-12-15T06:47:32.007Z,-8.74
2022-12-15T06:52:34.915Z,-9.14
2022-12-15T06:57:39.833Z,-9.22
2022-12-15T07:02:43.256Z,-9.46
2022-12-15T07:07:53.362Z,-9.51
2022-12-15T07:12:58.739Z,-9.44
2022-12-15T07:18:01.881Z,-9.35
2022-12-15T07:23:07.995Z,-9.55
2022-12-15T07:28:12.531Z,-9.34
2022-12-15T07:33:15.942Z,-9.24
2022-12-15T07:38:18.862Z,-9.22
2022-12-15T07:43:24.077Z,-9.24
2022-12-15T07:48:27.447Z,-9.03
2022-12-15T07:53:30.914Z,-8.87
2022-12-15T07:58:35.627Z,-8.96
2022-12-15T08:03:39.428Z,-8.96
2022-12-15T08:08:44.649Z,-9.14
2022-12-15T08:14:02.579Z,-8.87
2022-12-15T08:19:06.787Z,-8.81
2022-12-15T08:24:10.664Z,-9.69
2022-12-15T08:29:49.518Z,-9.55
2022-12-15T08:34:39.955Z,-9.17
2022-12-15T08:39:42.953Z,-8.83
2022-12-15T08:44:49.770Z,-9.08
2022-12-15T08:49:54.077Z,-8.93
2022-12-15T08:54:56.932Z,-8.66
2022-12-15T09:00:01.397Z,-8.47
2022-12-15T09:05:06.247Z,-9.10
2022-12-15T09:10:09.840Z,-8.67
2022-12-15T09:15:14.614Z,-8.78
2022-12-15T09:20:18.194Z,-8.36
2022-12-15T09:25:21.194Z,-7.96
2022-12-15T09:30:25.711Z,-7.75
2022-12-15T09:35:28.990Z,-7.56
2022-12-15T09:40:33.409Z,-7.72
2022-12-15T09:45:44.388Z,-8.04
2022-12-15T09:50:49.567Z,-7.72
2022-12-15T09:56:03.532Z,-7.58
2022-12-15T10:01:19.520Z,-7.21
2022-12-15T10:06:33.308Z,-7.27
2022-12-15T10:11:50.551Z,-6.53
2022-12-15T10:17:03.988Z,-5.98
2022-12-15T10:22:11.525Z,-5.58
2022-12-15T10:27:25.637Z,-5.45
2022-12-15T10:32:42.632Z,-4.70
2022-12-15T10:37:45.884Z,-4.89
2022-12-15T10:42:51.548Z,-5.02
2022-12-15T10:48:02.518Z,-4.73
2022-12-15T10:53:10.076Z,-4.91
2022-12-15T10:58:18.894Z,-5.08
2022-12-15T11:03:26.239Z,-4.55
2022-12-15T11:08:31.270Z,-4.60
2022-12-15T11:19:08.046Z,-5.06
2022-12-15T11:24:16.089Z,-4.81
2022-12-15T11:29:34.778Z,-4.74
2022-12-15T11:34:42.917Z,-5.06
2022-12-15T11:40:02.192Z,-4.85
2022-12-15T11:45:09.968Z,-5.02
2022-12-15T11:50:30.510Z,-5.19
2022-12-15T11:55:44.296Z,-5.25
2022-12-15T12:00:55.936Z,-4.77
2022-12-15T12:06:08.538Z,-4.98
2022-12-15T12:11:15.684Z,-5.58
2022-12-15T12:16:33.185Z,-5.35
2022-12-15T12:21:41.720Z,-5.98
2022-12-15T12:26:48.533Z,-5.51
2022-12-15T12:32:05.190Z,-5.80
2022-12-15T12:37:18.035Z,-5.66
2022-12-15T12:42:27.297Z,-5.87
2022-12-15T12:47:34.518Z,-5.57
2022-12-15T12:52:39.161Z,-5.72
2022-12-15T12:57:45.516Z,-5.78
2022-12-15T13:03:10.124Z,-5.70
2022-12-15T13:08:52.019Z,-5.73
2022-12-15T13:13:56.652Z,-5.85
2022-12-15T13:19:05.259Z,-5.89
2022-12-15T13:24:23.083Z,-6.06
2022-12-15T13:29:27.526Z,-6.00
2022-12-15T13:34:36.875Z,-6.22
2022-12-15T13:39:58.861Z,-6.45
2022-12-15T13:45:29.941Z,-6.29
2022-12-15T13:50:40.359Z,-6.23
2022-12-15T13:55:56.793Z,-6.50
2022-12-15T14:01:01.117Z,-6.38
2022-12-15T14:06:04.096Z,-6.52
2022-12-15T14:11:29.424Z,-6.52
2022-12-15T14:16:35.242Z,-6.38
2022-12-15T14:21:38.335Z,-6.99
2022-12-15T14:26:42.688Z,-6.80
2022-12-15T14:31:51.231Z,-7.16
2022-12-15T14:36:57.150Z,-7.11
2022-12-15T14:42:02.171Z,-7.16
2022-12-15T14:47:09.427Z,-7.27
2022-12-15T14:52:28.675Z,-7.22
2022-12-15T14:57:42.449Z,-7.41
2022-12-15T15:02:46.913Z,-7.59
2022-12-15T15:03:13.684Z,-4.75
2022-12-15T15:07:56.683Z,-7.64
2022-12-15T15:13:00.127Z,-7.90
2022-12-15T15:18:04.560Z,-7.71
2022-12-15T15:23:17.704Z,-7.93
2022-12-15T15:28:25.962Z,-8.12
2022-12-15T15:33:30.283Z,-8.00
2022-12-15T15:38:36.985Z,-8.03
2022-12-15T15:43:39.998Z,-7.96
2022-12-15T15:48:47.859Z,-8.26
2022-12-15T15:53:50.872Z,-8.28
2022-12-15T15:58:53.892Z,-8.33
2022-12-15T16:03:58.370Z,-8.59
2022-12-15T16:09:01.426Z,-8.44
2022-12-15T16:14:04.739Z,-8.49
2022-12-15T16:19:09.247Z,-8.64
2022-12-15T16:24:17.049Z,-8.59
2022-12-15T16:29:21.896Z,-8.95
2022-12-15T16:34:26.247Z,-8.89
2022-12-15T16:39:32.135Z,-8.81
2022-12-15T16:44:35.038Z,-8.93
2022-12-15T16:49:40.487Z,-9.01
2022-12-15T16:54:46.291Z,-8.99
2022-12-15T16:59:49.812Z,-8.93
2022-12-15T17:04:55.234Z,-8.83
2022-12-15T17:09:58.345Z,-9.09
2022-12-15T17:15:02.429Z,-9.13
2022-12-15T17:26:09.371Z,-9.25
2022-12-15T17:30:59.453Z,-9.33
2022-12-15T17:36:11.746Z,-9.33
2022-12-15T17:41:42.304Z,-9.32
2022-12-15T17:46:38.611Z,-9.87
2022-12-15T17:51:43.906Z,-9.59
2022-12-15T17:56:49.206Z,-9.71
2022-12-15T18:01:52.221Z,-9.54
2022-12-15T18:07:01.465Z,-9.31
2022-12-15T18:12:11.961Z,-9.34
2022-12-15T18:17:14.988Z,-9.27
2022-12-15T18:27:29.632Z,-7.11
2022-12-15T18:32:38.217Z,-6.93
2022-12-15T18:37:41.255Z,-6.97
2022-12-15T18:42:47.125Z,-6.86
2022-12-15T18:47:50.828Z,-6.95
2022-12-15T18:52:58.918Z,-6.72
2022-12-15T18:58:03.286Z,-6.65
2022-12-15T19:03:06.672Z,-6.57
2022-12-15T19:08:14.030Z,-6.54
2022-12-15T19:13:20.929Z,-7.04
2022-12-15T19:18:42.539Z,-6.66
2022-12-15T19:23:45.537Z,-6.46
2022-12-15T19:28:49.776Z,-6.35
2022-12-15T19:33:52.656Z,-6.31
2022-12-15T19:38:56.600Z,-6.16
2022-12-15T19:44:01.013Z,-6.16
2022-12-15T19:49:03.962Z,-6.16
2022-12-15T19:54:07.853Z,-6.13
2022-12-15T19:59:20.421Z,-6.20
2022-12-15T20:04:24.499Z,-6.07
2022-12-15T20:09:27.628Z,-6.11
2022-12-15T20:14:32.295Z,-6.23
2022-12-15T20:19:35.231Z,-6.27
2022-12-15T20:24:38.147Z,-6.15
2022-12-15T20:29:42.420Z,-6.09
2022-12-15T20:34:45.855Z,-5.92
2022-12-15T20:39:53.930Z,-5.99
2022-12-15T20:45:01.373Z,-6.11
2022-12-15T20:50:04.751Z,-5.98
2022-12-15T20:55:11.503Z,-6.10
2022-12-15T21:00:18.000Z,-6.04
2022-12-15T21:05:23.426Z,-6.04
2022-12-15T21:10:28.250Z,-5.95
2022-12-15T21:15:32.557Z,-5.79
2022-12-15T21:20:35.485Z,-6.34
2022-12-15T21:25:38.519Z,-6.23
2022-12-15T21:30:43.105Z,-5.92
2022-12-15T21:35:48.455Z,-5.92
2022-12-15T21:40:57.673Z,-6.63
2022-12-15T21:46:12.546Z,-6.39
2022-12-15T21:51:16.923Z,-6.10
2022-12-15T21:56:22.315Z,-6.27
2022-12-15T22:01:30.351Z,-6.16
2022-12-15T22:06:33.351Z,-5.96
2022-12-15T22:11:36.258Z,-5.71
2022-12-15T22:16:40.577Z,-5.80
2022-12-15T22:21:43.521Z,-5.84
2022-12-15T22:26:46.499Z,-6.47
2022-12-15T22:31:51.882Z,-5.91
2022-12-15T22:36:55.140Z,-5.89
2022-12-15T22:41:58.513Z,-5.66
2022-12-15T22:47:04.657Z,-5.67
2022-12-15T22:52:16.491Z,-5.68
2022-12-15T22:57:22.624Z,-5.64
2022-12-15T23:02:27.318Z,-5.49
2022-12-15T23:07:30.291Z,-5.22
2022-12-15T23:12:33.163Z,-5.27
2022-12-15T23:17:37.473Z,-5.22
2022-12-15T23:22:40.383Z,-5.39
2022-12-15T23:27:43.333Z,-5.10
2022-12-15T23:32:47.632Z,-5.18
2022-12-15T23:37:50.930Z,-5.32
2022-12-15T23:42:53.839Z,-5.22
2022-12-15T23:47:59.522Z,-5.10
2022-12-15T23:53:02.684Z,-5.15
2022-12-15T23:58:05.575Z,-5.09
